createdAt,value
2022-12-03T00:00:12.147Z,18.70
2022-12-03T00:02:39.647Z,16.98
2022-12-03T00:05:06.306Z,17.65
2022-12-03T00:07:32.876Z,18.00
2022-12-03T00:09:59.446Z,16.85
2022-12-03T00:12:25.979Z,17.33
2022-12-03T00:14:52.544Z,17.77
2022-12-03T00:17:19.777Z,17.58
2022-12-03T00:19:46.273Z,17.85
2022-12-03T00:22:13.492Z,18.50
2022-12-03T00:24:40.024Z,19.25
2022-12-03T00:27:06.639Z,18.67
2022-12-03T00:29:33.259Z,18.85
2022-12-03T00:31:59.931Z,20.67
2022-12-03T00:34:26.466Z,18.75
2022-12-03T00:36:52.990Z,19.85
2022-12-03T00:39:19.508Z,20.50
2022-12-03T00:41:46.004Z,19.55
2022-12-03T00:44:12.508Z,18.23
2022-12-03T00:46:39.116Z,19.08
2022-12-03T00:49:06.028Z,19.00
2022-12-03T00:51:35.803Z,18.50
2022-12-03T00:54:02.450Z,18.13
2022-12-03T00:56:29.033Z,18.42
2022-12-03T00:58:55.578Z,18.17
2022-12-03T01:01:22.127Z,18.30
2022-12-03T01:03:48.758Z,18.80
2022-12-03T01:06:15.279Z,17.80
2022-12-03T01:08:41.811Z,18.88
2022-12-03T01:11:28.559Z,19.00
2022-12-03T01:13:55.091Z,19.30
2022-12-03T01:16:21.747Z,19.25
2022-12-03T01:18:48.385Z,18.90
2022-12-03T01:21:14.935Z,19.30
2022-12-03T01:23:41.445Z,19.33
2022-12-03T01:26:08.193Z,19.02
2022-12-03T01:28:35.005Z,18.40
2022-12-03T01:31:20.143Z,17.75
2022-12-03T01:33:46.707Z,18.75
2022-12-03T01:36:13.343Z,17.15
2022-12-03T01:38:39.910Z,18.52
2022-12-03T01:41:11.451Z,17.85
2022-12-03T01:43:38.606Z,17.42
2022-12-03T01:46:05.365Z,17.88
2022-12-03T01:48:34.857Z,17.95
2022-12-03T01:51:01.682Z,17.70
2022-12-03T01:53:28.215Z,18.17
2022-12-03T01:55:54.815Z,18.08
2022-12-03T01:58:26.847Z,17.48
2022-12-03T02:00:53.557Z,17.52
2022-12-03T02:03:25.571Z,17.80
2022-12-03T02:05:52.482Z,17.70
2022-12-03T02:08:36.870Z,17.75
2022-12-03T02:11:14.627Z,18.77
2022-12-03T02:13:42.444Z,18.75
2022-12-03T02:16:09.513Z,19.05
2022-12-03T02:18:36.294Z,18.40
2022-12-03T02:21:20.292Z,18.52
2022-12-03T02:26:36.225Z,16.95
2022-12-03T02:29:03.048Z,17.48
2022-12-03T02:31:29.820Z,18.02
2022-12-03T02:33:56.367Z,17.52
2022-12-03T02:36:23.108Z,19.05
2022-12-03T02:38:50.703Z,18.50
2022-12-03T02:41:39.137Z,17.90
2022-12-03T02:44:07.265Z,17.90
2022-12-03T02:46:34.252Z,17.85
2022-12-03T02:49:01.896Z,17.98
2022-12-03T02:51:28.677Z,17.20
2022-12-03T02:53:56.747Z,17.85
2022-12-03T02:56:29.248Z,17.75
2022-12-03T02:59:00.220Z,17.35
2022-12-03T03:01:26.956Z,19.23
2022-12-03T03:03:54.076Z,19.58
2022-12-03T03:06:22.581Z,21.80
2022-12-03T03:08:49.318Z,21.88
2022-12-03T03:11:15.841Z,23.38
2022-12-03T03:13:42.767Z,21.48
2022-12-03T03:16:09.880Z,20.23
2022-12-03T03:18:36.881Z,20.73
2022-12-03T03:21:04.567Z,21.48
2022-12-03T03:23:31.156Z,22.05
2022-12-03T03:26:07.405Z,21.45
2022-12-03T03:28:43.387Z,19.73
2022-12-03T03:31:12.793Z,19.52
2022-12-03T03:33:41.459Z,19.65
2022-12-03T03:36:08.636Z,19.55
2022-12-03T03:38:36.735Z,19.60
2022-12-03T03:41:06.307Z,21.52
2022-12-03T03:43:34.884Z,20.55
2022-12-03T03:46:04.182Z,20.58
2022-12-03T03:48:31.805Z,20.38
2022-12-03T03:50:58.384Z,21.17
2022-12-03T03:53:25.020Z,21.38
2022-12-03T03:55:51.945Z,23.45
2022-12-03T03:58:18.674Z,21.98
2022-12-03T04:00:46.392Z,21.60
2022-12-03T04:03:13.440Z,20.85
2022-12-03T04:05:40.172Z,20.40
2022-12-03T04:08:06.788Z,19.48
2022-12-03T04:10:51.834Z,19.40
2022-12-03T04:13:18.452Z,18.40
2022-12-03T04:15:45.106Z,18.75
2022-12-03T04:18:30.095Z,19.08
2022-12-03T04:21:16.539Z,19.70
2022-12-03T04:23:43.168Z,19.33
2022-12-03T04:26:28.451Z,20.92
2022-12-03T04:28:55.343Z,19.83
2022-12-03T04:31:40.491Z,19.25
2022-12-03T04:34:25.562Z,19.33
2022-12-03T04:36:52.048Z,18.90
2022-12-03T04:39:18.742Z,18.70
2022-12-03T04:41:45.295Z,18.92
2022-12-03T04:44:30.244Z,18.58
2022-12-03T04:46:56.797Z,19.45
2022-12-03T04:49:23.400Z,18.95
2022-12-03T04:51:49.929Z,18.65
2022-12-03T04:54:16.581Z,18.45
2022-12-03T04:56:43.245Z,18.35
2022-12-03T04:59:15.754Z,18.55
2022-12-03T05:01:43.288Z,18.63
2022-12-03T05:04:10.710Z,18.10
2022-12-03T05:06:37.248Z,17.80
2022-12-03T05:09:03.907Z,18.52
2022-12-03T05:11:31.242Z,18.27
2022-12-03T05:13:57.821Z,18.15
2022-12-03T05:16:24.543Z,16.83
2022-12-03T05:18:51.102Z,17.10
2022-12-03T05:21:17.631Z,17.50
2022-12-03T05:23:44.167Z,16.83
2022-12-03T05:26:11.473Z,16.30
2022-12-03T05:28:38.005Z,15.43
2022-12-03T05:31:05.180Z,15.68
2022-12-03T05:33:31.746Z,15.38
2022-12-03T05:35:58.322Z,17.45
2022-12-03T05:38:24.861Z,16.45
2022-12-03T05:40:51.403Z,17.00
2022-12-03T05:43:17.952Z,16.35
2022-12-03T05:45:44.772Z,15.50
2022-12-03T05:48:13.732Z,15.85
2022-12-03T05:50:43.807Z,16.60
2022-12-03T05:53:14.921Z,17.25
2022-12-03T05:55:41.791Z,17.95
2022-12-03T05:58:08.683Z,16.38
2022-12-03T06:00:42.539Z,15.30
2022-12-03T06:03:09.733Z,16.60
2022-12-03T06:05:36.406Z,14.10
2022-12-03T06:08:03.042Z,15.32
2022-12-03T06:10:30.214Z,15.98
2022-12-03T06:12:56.989Z,13.43
2022-12-03T06:15:23.585Z,13.90
2022-12-03T06:17:50.293Z,15.25
2022-12-03T06:20:21.283Z,13.07
2022-12-03T06:22:48.385Z,13.32
2022-12-03T06:25:15.711Z,13.55
2022-12-03T06:27:42.242Z,13.52
2022-12-03T06:30:12.766Z,15.50
2022-12-03T06:32:39.515Z,14.85
2022-12-03T06:35:06.268Z,14.15
2022-12-03T06:37:32.792Z,13.82
2022-12-03T06:39:59.608Z,14.45
2022-12-03T06:42:26.107Z,15.55
2022-12-03T06:44:52.998Z,16.58
2022-12-03T06:47:19.888Z,15.73
2022-12-03T06:49:46.379Z,14.98
2022-12-03T06:52:12.858Z,14.43
2022-12-03T06:54:39.446Z,16.90
2022-12-03T06:57:05.982Z,17.77
2022-12-03T06:59:34.155Z,16.58
2022-12-03T07:02:01.099Z,14.52
2022-12-03T07:04:27.707Z,14.77
2022-12-03T07:06:54.619Z,14.73
2022-12-03T07:09:21.185Z,14.63
2022-12-03T07:11:47.745Z,13.93
2022-12-03T07:14:14.404Z,15.05
2022-12-03T07:16:43.277Z,16.40
2022-12-03T07:19:10.620Z,15.07
2022-12-03T07:21:37.949Z,16.98
2022-12-03T07:24:04.855Z,14.38
2022-12-03T07:26:31.609Z,16.13
2022-12-03T07:28:58.776Z,16.50
2022-12-03T07:31:25.637Z,15.43
2022-12-03T07:33:52.248Z,14.02
2022-12-03T07:36:18.756Z,15.25
2022-12-03T07:38:45.311Z,14.60
2022-12-03T07:41:12.407Z,13.55
2022-12-03T07:43:38.920Z,15.20
2022-12-03T07:46:05.658Z,13.48
2022-12-03T07:48:32.236Z,15.25
2022-12-03T07:50:58.795Z,13.60
2022-12-03T07:53:25.351Z,16.00
2022-12-03T07:55:51.931Z,16.05
2022-12-03T07:58:18.549Z,15.30
2022-12-03T08:00:45.121Z,14.07
2022-12-03T08:03:11.691Z,15.13
2022-12-03T08:05:38.182Z,15.45
2022-12-03T08:08:04.853Z,15.65
2022-12-03T08:10:31.393Z,15.50
2022-12-03T08:12:59.567Z,15.23
2022-12-03T08:15:31.143Z,16.42
2022-12-03T08:18:12.016Z,15.75
2022-12-03T08:20:40.669Z,17.65
2022-12-03T08:23:13.306Z,16.02
2022-12-03T08:25:39.987Z,16.15
2022-12-03T08:28:21.222Z,16.20
2022-12-03T08:31:00.117Z,15.10
2022-12-03T08:33:35.990Z,15.80
2022-12-03T08:36:11.026Z,17.45
2022-12-03T08:38:37.572Z,19.30
2022-12-03T08:41:13.799Z,16.27
2022-12-03T08:43:42.849Z,16.02
2022-12-03T08:46:19.202Z,15.98
2022-12-03T08:48:48.982Z,15.73
2022-12-03T08:51:20.767Z,12.02
2022-12-03T08:53:56.658Z,13.70
2022-12-03T08:56:29.006Z,12.43
2022-12-03T08:58:58.484Z,11.38
2022-12-03T09:01:39.265Z,11.15
2022-12-03T09:04:25.122Z,12.80
2022-12-03T09:06:53.044Z,11.32
2022-12-03T09:09:20.032Z,11.60
2022-12-03T09:11:47.075Z,11.85
2022-12-03T09:14:18.496Z,11.27
2022-12-03T09:16:45.428Z,12.90
2022-12-03T09:19:12.048Z,12.15
2022-12-03T09:21:38.545Z,12.68
2022-12-03T09:24:05.318Z,13.10
2022-12-03T09:26:31.823Z,13.85
2022-12-03T09:28:58.382Z,13.50
2022-12-03T09:31:24.942Z,12.15
2022-12-03T09:33:52.262Z,12.13
2022-12-03T09:36:18.816Z,12.10
2022-12-03T09:38:47.905Z,13.52
2022-12-03T09:41:15.023Z,13.43
2022-12-03T09:46:29.743Z,15.00
2022-12-03T09:48:57.176Z,14.55
2022-12-03T09:51:30.422Z,14.18
2022-12-03T09:53:59.696Z,16.02
2022-12-03T09:56:26.414Z,14.05
2022-12-03T09:58:52.988Z,14.75
2022-12-03T10:01:21.206Z,15.55
2022-12-03T10:03:51.684Z,16.25
2022-12-03T10:06:23.484Z,15.63
2022-12-03T10:08:54.523Z,15.82
2022-12-03T10:11:23.894Z,16.73
2022-12-03T10:13:52.527Z,16.75
2022-12-03T10:16:20.921Z,16.67
2022-12-03T10:18:51.924Z,16.75
2022-12-03T10:21:36.312Z,17.17
2022-12-03T10:24:25.764Z,16.73
2022-12-03T10:27:00.807Z,18.98
2022-12-03T10:29:33.911Z,18.00
2022-12-03T10:32:06.643Z,21.08
2022-12-03T10:34:38.386Z,19.25
2022-12-03T10:37:12.624Z,20.70
2022-12-03T10:39:59.302Z,18.92
2022-12-03T10:42:32.354Z,18.17
2022-12-03T10:45:08.385Z,18.75
2022-12-03T10:47:35.031Z,19.80
2022-12-03T10:50:04.871Z,19.42
2022-12-03T10:52:31.899Z,18.25
2022-12-03T10:54:58.912Z,17.48
2022-12-03T10:57:25.598Z,18.10
2022-12-03T10:59:52.255Z,17.75
2022-12-03T11:02:21.902Z,17.35
2022-12-03T11:04:49.380Z,17.60
2022-12-03T11:07:19.143Z,18.42
2022-12-03T11:09:48.311Z,19.10
2022-12-03T11:12:26.609Z,18.90
2022-12-03T11:14:54.348Z,18.38
2022-12-03T11:17:39.854Z,19.27
2022-12-03T11:20:13.390Z,17.58
2022-12-03T11:22:49.321Z,17.85
2022-12-03T11:25:25.498Z,19.75
2022-12-03T11:28:21.418Z,19.83
2022-12-03T11:30:51.096Z,19.80
2022-12-03T11:33:32.339Z,19.08
2022-12-03T11:36:04.608Z,19.55
2022-12-03T11:38:41.025Z,18.27
2022-12-03T11:41:15.025Z,18.75
2022-12-03T11:43:56.651Z,18.40
2022-12-03T11:46:31.062Z,19.98
2022-12-03T11:48:59.800Z,19.55
2022-12-03T11:51:29.269Z,20.40
2022-12-03T11:53:58.456Z,20.48
2022-12-03T11:56:27.582Z,21.50
2022-12-03T11:59:02.807Z,18.88
2022-12-03T12:01:39.119Z,19.98
2022-12-03T12:04:07.605Z,17.83
2022-12-03T12:06:47.439Z,17.40
2022-12-03T12:09:47.665Z,18.65
2022-12-03T12:12:19.340Z,17.52
2022-12-03T12:14:45.987Z,18.45
2022-12-03T12:17:36.295Z,18.48
2022-12-03T12:20:24.683Z,20.02
2022-12-03T12:22:53.545Z,19.17
2022-12-03T12:25:40.838Z,21.52
2022-12-03T12:28:08.164Z,20.95
2022-12-03T12:30:36.614Z,19.75
2022-12-03T12:33:26.080Z,18.83
2022-12-03T12:35:53.601Z,18.98
2022-12-03T12:38:22.567Z,18.67
2022-12-03T12:40:50.594Z,18.25
2022-12-03T12:43:26.578Z,18.08
2022-12-03T12:45:55.242Z,17.52
2022-12-03T12:48:31.739Z,17.88
2022-12-03T12:51:06.071Z,20.48
2022-12-03T12:53:35.230Z,23.35
2022-12-03T12:56:22.071Z,23.63
2022-12-03T12:58:48.891Z,25.23
2022-12-03T13:01:20.986Z,32.28
2022-12-03T13:03:50.453Z,29.83
2022-12-03T13:06:19.685Z,29.92
2022-12-03T13:08:49.056Z,23.65
2022-12-03T13:11:38.649Z,21.75
2022-12-03T13:14:22.130Z,26.40
2022-12-03T13:16:50.718Z,25.35
2022-12-03T13:19:28.504Z,20.08
2022-12-03T13:22:03.321Z,20.52
2022-12-03T13:24:40.556Z,19.48
2022-12-03T13:27:23.005Z,18.60
2022-12-03T13:29:55.334Z,18.98
2022-12-03T13:32:35.988Z,19.80
2022-12-03T13:35:39.762Z,19.10
2022-12-03T13:38:15.293Z,18.40
2022-12-03T13:40:42.093Z,20.00
2022-12-03T13:43:17.860Z,18.92
2022-12-03T13:45:46.505Z,19.25
2022-12-03T13:48:31.903Z,19.90
2022-12-03T13:51:10.963Z,18.67
2022-12-03T13:53:38.772Z,18.77
2022-12-03T13:56:27.803Z,17.48
2022-12-03T13:58:55.699Z,20.75
2022-12-03T14:01:23.044Z,20.27
2022-12-03T14:03:50.086Z,18.70
2022-12-03T14:06:17.820Z,18.63
2022-12-03T14:08:44.712Z,18.25
2022-12-03T14:11:34.512Z,18.02
2022-12-03T14:14:01.166Z,18.23
2022-12-03T14:16:27.857Z,20.15
2022-12-03T14:18:54.442Z,19.17
2022-12-03T14:21:20.972Z,18.35
2022-12-03T14:23:47.536Z,17.45
2022-12-03T14:26:14.042Z,17.02
2022-12-03T14:28:46.495Z,18.50
2022-12-03T14:31:13.291Z,18.98
2022-12-03T14:33:39.941Z,18.73
2022-12-03T14:36:06.747Z,19.35
2022-12-03T14:38:33.279Z,17.83
2022-12-03T14:40:59.839Z,20.00
2022-12-03T14:43:26.371Z,18.13
2022-12-03T14:45:52.991Z,21.63
2022-12-03T14:48:20.695Z,19.38
2022-12-03T14:50:47.217Z,21.38
2022-12-03T14:53:13.710Z,19.92
2022-12-03T14:55:40.267Z,20.75
2022-12-03T14:58:06.752Z,20.05
2022-12-03T15:00:33.235Z,19.58
2022-12-03T15:02:59.883Z,19.05
2022-12-03T15:05:28.782Z,20.80
2022-12-03T15:07:55.886Z,20.98
2022-12-03T15:10:22.520Z,21.80
2022-12-03T15:12:48.997Z,21.67
2022-12-03T15:15:15.551Z,20.63
2022-12-03T15:17:45.617Z,20.88
2022-12-03T15:20:12.780Z,21.65
2022-12-03T15:22:39.284Z,19.48
2022-12-03T15:25:07.592Z,19.30
2022-12-03T15:27:34.128Z,20.10
2022-12-03T15:30:00.723Z,19.52
2022-12-03T15:32:27.281Z,18.83
2022-12-03T15:34:53.891Z,19.08
2022-12-03T15:37:20.460Z,19.98
2022-12-03T15:39:48.884Z,20.08
2022-12-03T15:42:15.601Z,19.17
2022-12-03T15:44:42.152Z,20.27
2022-12-03T15:47:08.694Z,19.58
2022-12-03T15:49:35.243Z,19.60
2022-12-03T15:52:01.752Z,21.17
2022-12-03T15:54:28.278Z,23.65
2022-12-03T15:56:57.492Z,24.25
2022-12-03T15:59:24.794Z,22.95
2022-12-03T16:01:51.478Z,21.42
2022-12-03T16:04:18.038Z,20.52
2022-12-03T16:06:44.556Z,20.45
2022-12-03T16:09:11.101Z,23.67
2022-12-03T16:11:37.635Z,21.60
2022-12-03T16:14:04.157Z,23.67
2022-12-03T16:16:30.691Z,20.73
2022-12-03T16:18:57.245Z,20.25
2022-12-03T16:21:27.057Z,22.23
2022-12-03T16:23:54.591Z,22.25
2022-12-03T16:26:21.935Z,21.05
2022-12-03T16:28:48.569Z,22.27
2022-12-03T16:31:15.121Z,25.98
2022-12-03T16:33:41.683Z,21.98
2022-12-03T16:36:08.525Z,20.98
2022-12-03T16:38:35.058Z,20.55
2022-12-03T16:41:02.159Z,23.30
2022-12-03T16:43:28.771Z,28.42
2022-12-03T16:46:13.950Z,21.20
2022-12-03T16:48:41.311Z,19.58
2022-12-03T16:51:07.943Z,20.25
2022-12-03T16:53:34.482Z,20.67
2022-12-03T16:56:01.666Z,20.60
2022-12-03T16:58:28.436Z,22.15
2022-12-03T17:00:54.950Z,21.65
2022-12-03T17:03:22.626Z,20.48
2022-12-03T17:05:49.295Z,18.40
2022-12-03T17:08:16.851Z,20.02
2022-12-03T17:10:44.427Z,18.42
2022-12-03T17:13:11.246Z,17.55
2022-12-03T17:15:38.394Z,17.52
2022-12-03T17:18:05.421Z,19.45
2022-12-03T17:20:33.589Z,20.58
2022-12-03T17:23:00.683Z,20.27
2022-12-03T17:25:27.821Z,17.95
2022-12-03T17:27:54.453Z,18.42
2022-12-03T17:30:21.346Z,17.90
2022-12-03T17:32:50.262Z,18.83
2022-12-03T17:35:17.273Z,20.70
2022-12-03T17:37:43.850Z,17.90
2022-12-03T17:40:12.436Z,20.02
2022-12-03T17:42:39.009Z,21.77
2022-12-03T17:45:06.454Z,24.30
2022-12-03T17:47:33.000Z,23.95
2022-12-03T17:49:59.691Z,21.52
2022-12-03T17:52:26.324Z,21.58
2022-12-03T17:55:10.977Z,21.27
2022-12-03T17:57:39.546Z,21.88
2022-12-03T18:00:06.905Z,22.73
2022-12-03T18:02:38.891Z,20.58
2022-12-03T18:05:05.799Z,19.00
2022-12-03T18:07:32.397Z,22.55
2022-12-03T18:09:59.076Z,20.05
2022-12-03T18:12:26.082Z,19.75
2022-12-03T18:14:52.583Z,21.05
2022-12-03T18:17:19.120Z,24.15
2022-12-03T18:19:45.696Z,20.85
2022-12-03T18:22:12.917Z,22.55
2022-12-03T18:24:39.768Z,21.77
2022-12-03T18:27:06.402Z,21.23
2022-12-03T18:29:32.935Z,21.02
2022-12-03T18:31:59.618Z,21.30
2022-12-03T18:34:26.229Z,22.73
2022-12-03T18:36:52.818Z,21.98
2022-12-03T18:39:28.788Z,21.45
2022-12-03T18:41:55.364Z,23.73
2022-12-03T18:44:22.051Z,23.27
2022-12-03T18:46:55.894Z,27.80
2022-12-03T18:49:22.746Z,25.80
2022-12-03T18:51:53.283Z,23.60
2022-12-03T18:54:24.793Z,25.48
2022-12-03T18:56:51.271Z,26.88
2022-12-03T18:59:17.795Z,24.45
2022-12-03T19:01:44.984Z,22.05
2022-12-03T19:04:11.665Z,26.10
2022-12-03T19:06:38.224Z,23.75
2022-12-03T19:09:04.922Z,21.60
2022-12-03T19:11:31.526Z,21.17
2022-12-03T19:13:59.096Z,17.73
2022-12-03T19:16:26.196Z,20.23
2022-12-03T19:18:53.878Z,21.25
2022-12-03T19:21:20.601Z,20.23
2022-12-03T19:24:16.424Z,21.13
2022-12-03T19:26:34.155Z,20.50
2022-12-03T19:29:00.820Z,21.50
2022-12-03T19:31:28.957Z,19.67
2022-12-03T19:33:55.473Z,19.38
2022-12-03T19:36:24.686Z,18.17
2022-12-03T19:38:56.935Z,19.63
2022-12-03T19:41:27.390Z,26.10
2022-12-03T19:43:55.919Z,18.15
2022-12-03T19:46:24.636Z,20.15
2022-12-03T19:48:51.736Z,20.02
2022-12-03T19:51:34.189Z,18.90
2022-12-03T19:54:01.907Z,19.95
2022-12-03T19:56:30.247Z,20.98
2022-12-03T19:58:57.540Z,22.58
2022-12-03T20:01:28.754Z,21.27
2022-12-03T20:03:57.371Z,17.27
2022-12-03T20:06:27.114Z,18.48
2022-12-03T20:08:56.486Z,18.95
2022-12-03T20:11:25.735Z,17.25
2022-12-03T20:13:55.004Z,23.42
2022-12-03T20:16:22.125Z,19.60
2022-12-03T20:18:49.652Z,17.67
2022-12-03T20:21:18.365Z,16.95
2022-12-03T20:23:45.935Z,19.20
2022-12-03T20:26:15.769Z,17.95
2022-12-03T20:28:43.232Z,16.75
2022-12-03T20:31:13.497Z,17.42
2022-12-03T20:33:42.407Z,17.73
2022-12-03T20:36:10.327Z,17.02
2022-12-03T20:38:37.164Z,20.23
2022-12-03T20:41:05.764Z,19.33
2022-12-03T20:43:32.921Z,17.05
2022-12-03T20:46:10.577Z,21.25
2022-12-03T20:48:37.727Z,17.25
2022-12-03T20:51:10.307Z,16.73
2022-12-03T20:53:37.603Z,19.60
2022-12-03T20:56:04.887Z,17.90
2022-12-03T20:58:32.002Z,19.60
2022-12-03T21:01:19.862Z,17.52
2022-12-03T21:03:47.355Z,20.77
2022-12-03T21:06:15.095Z,16.60
2022-12-03T21:08:43.066Z,25.38
2022-12-03T21:11:13.074Z,16.42
2022-12-03T21:13:43.951Z,18.15
2022-12-03T21:16:29.837Z,19.23
2022-12-03T21:19:01.028Z,20.65
2022-12-03T21:21:28.215Z,18.42
2022-12-03T21:23:54.832Z,17.95
2022-12-03T21:26:22.537Z,17.85
2022-12-03T21:28:51.926Z,17.85
2022-12-03T21:31:22.021Z,20.15
2022-12-03T21:33:48.980Z,17.58
2022-12-03T21:36:16.874Z,19.50
2022-12-03T21:38:44.787Z,19.40
2022-12-03T21:41:12.743Z,17.55
2022-12-03T21:43:39.290Z,18.73
2022-12-03T21:47:08.299Z,19.58
2022-12-03T21:48:53.964Z,20.83
2022-12-03T21:51:20.510Z,19.17
2022-12-03T21:53:47.086Z,19.80
2022-12-03T21:56:17.103Z,21.23
2022-12-03T21:58:44.573Z,20.75
2022-12-03T22:01:20.724Z,18.20
2022-12-03T22:03:47.821Z,19.70
2022-12-03T22:06:15.249Z,18.73
2022-12-03T22:08:42.079Z,21.38
2022-12-03T22:11:11.646Z,17.67
2022-12-03T22:13:39.033Z,19.55
2022-12-03T22:16:07.749Z,19.88
2022-12-03T22:18:34.398Z,18.40
2022-12-03T22:21:12.128Z,16.55
2022-12-03T22:23:39.185Z,18.25
2022-12-03T22:26:08.623Z,19.77
2022-12-03T22:28:35.329Z,18.02
2022-12-03T22:31:06.639Z,16.98
2022-12-03T22:33:33.482Z,17.20
2022-12-03T22:36:03.037Z,16.65
2022-12-03T22:38:30.738Z,20.02
2022-12-03T22:40:57.493Z,19.42
2022-12-03T22:43:24.182Z,21.13
2022-12-03T22:45:55.197Z,20.80
2022-12-03T22:48:23.292Z,19.40
2022-12-03T22:50:51.720Z,21.95
2022-12-03T22:53:18.847Z,19.02
2022-12-03T22:55:53.396Z,19.80
2022-12-03T22:58:20.039Z,18.40
2022-12-03T23:00:46.577Z,18.92
2022-12-03T23:03:13.235Z,19.75
2022-12-03T23:05:39.899Z,16.52
2022-12-03T23:08:08.726Z,20.17
2022-12-03T23:10:38.109Z,16.45
2022-12-03T23:13:05.533Z,17.10
2022-12-03T23:15:32.880Z,16.85
2022-12-03T23:18:00.144Z,18.45
2022-12-03T23:20:27.961Z,18.83
2022-12-03T23:22:55.045Z,19.27
2022-12-03T23:25:22.549Z,19.00
2022-12-03T23:27:49.230Z,19.10
2022-12-03T23:30:16.729Z,19.35
2022-12-03T23:32:44.405Z,20.17
2022-12-03T23:35:12.169Z,19.15
2022-12-03T23:37:39.212Z,18.25
2022-12-03T23:40:06.577Z,19.48
2022-12-03T23:42:33.066Z,19.55
2022-12-03T23:45:00.008Z,18.83
2022-12-03T23:47:28.273Z,18.95
2022-12-03T23:49:55.155Z,19.30
2022-12-03T23:52:21.913Z,20.42
2022-12-03T23:54:48.457Z,24.90
2022-12-03T23:57:16.127Z,19.52
2022-12-03T23:59:43.346Z,18.50
